<?xml version="1.0" encoding="UTF-8" standalone="no" ?>
<gpx xmlns="http://www.topografix.com/GPX/1/1" xmlns:xsi="http://www.w3.org/2001/XMLSchema-instance" xsi:schemaLocation="http://www.topografix.com/GPX/1/1 http://www.topografix.com/GPX/1/1/gpx.xsd" version="1.1" creator="VisuGPX - https://www.visugpx.com">
  <metadata>
    <name>De Var à Var</name>
  </metadata>
  <trk>
    <name><![CDATA[De Var à Var]]></name>
    <trkseg>
      <trkpt lat="43.44526" lon="6.77605">
        <ele>35.945275</ele>
        <time>2021-10-04T14:39:44.874Z</time>
      </trkpt>
      <trkpt lat="43.44545" lon="6.77571">
        <ele>35.945275</ele>
        <time>2021-10-04T14:39:49.800Z</time>
      </trkpt>
      <trkpt lat="43.4451" lon="6.77544">
        <ele>35.945275</ele>
        <time>2021-10-04T14:39:56.227Z</time>
      </trkpt>
      <trkpt lat="43.44483" lon="6.77522">
        <ele>35.715371</ele>
        <time>2021-10-04T14:40:01.144Z</time>
      </trkpt>
      <trkpt lat="43.44472" lon="6.77517">
        <ele>35.495376</ele>
        <time>2021-10-04T14:40:02.976Z</time>
      </trkpt>
      <trkpt lat="43.44461" lon="6.77503">
        <ele>35.201708</ele>
        <time>2021-10-04T14:40:05.426Z</time>
      </trkpt>
      <trkpt lat="43.44427" lon="6.77471">
        <ele>34.426557</ele>
        <time>2021-10-04T14:40:12.118Z</time>
      </trkpt>
      <trkpt lat="43.44407" lon="6.77462">
        <ele>34.019731</ele>
        <time>2021-10-04T14:40:15.531Z</time>
      </trkpt>
      <trkpt lat="43.44401" lon="6.7744">
        <ele>33.705378</ele>
        <time>2021-10-04T14:40:18.135Z</time>
      </trkpt>
      <trkpt lat="43.44407" lon="6.7741">
        <ele>33.271893</ele>
        <time>2021-10-04T14:40:21.668Z</time>
      </trkpt>
      <trkpt lat="43.44419" lon="6.77399">
        <ele>32.999446</ele>
        <time>2021-10-04T14:40:24.047Z</time>
      </trkpt>
      <trkpt lat="43.44459" lon="6.77401">
        <ele>32.465668</ele>
        <time>2021-10-04T14:40:30.854Z</time>
      </trkpt>
      <trkpt lat="43.44475" lon="6.77396">
        <ele>32.392102</ele>
        <time>2021-10-04T14:40:33.645Z</time>
      </trkpt>
      <trkpt lat="43.44494" lon="6.77367">
        <ele>32.26374</ele>
        <time>2021-10-04T14:40:38.952Z</time>
      </trkpt>
      <trkpt lat="43.44496" lon="6.77337">
        <ele>32.163197</ele>
        <time>2021-10-04T14:40:43.552Z</time>
      </trkpt>
      <trkpt lat="43.44499" lon="6.77309">
        <ele>32.071117</ele>
        <time>2021-10-04T14:40:47.339Z</time>
      </trkpt>
      <trkpt lat="43.44509" lon="6.77291">
        <ele>31.997465</ele>
        <time>2021-10-04T14:40:50.663Z</time>
      </trkpt>
      <trkpt lat="43.44521" lon="6.7728">
        <ele>31.931445</ele>
        <time>2021-10-04T14:40:53.255Z</time>
      </trkpt>
      <trkpt lat="43.44539" lon="6.77276">
        <ele>31.849648</ele>
        <time>2021-10-04T14:40:56.801Z</time>
      </trkpt>
      <trkpt lat="43.44575" lon="6.77307">
        <ele>31.551115</ele>
        <time>2021-10-04T14:41:04.457Z</time>
      </trkpt>
      <trkpt lat="43.44587" lon="6.77314">
        <ele>31.397639</ele>
        <time>2021-10-04T14:41:06.587Z</time>
      </trkpt>
      <trkpt lat="43.44601" lon="6.77314">
        <ele>31.221441</ele>
        <time>2021-10-04T14:41:08.849Z</time>
      </trkpt>
      <trkpt lat="43.44612" lon="6.77302">
        <ele>31.053562</ele>
        <time>2021-10-04T14:41:10.997Z</time>
      </trkpt>
      <trkpt lat="43.4463" lon="6.77244">
        <ele>30.491305</ele>
        <time>2021-10-04T14:41:18.049Z</time>
      </trkpt>
      <trkpt lat="43.44672" lon="6.77167">
        <ele>29.637285</ele>
        <time>2021-10-04T14:41:29.320Z</time>
      </trkpt>
      <trkpt lat="43.44678" lon="6.77144">
        <ele>29.631998</ele>
        <time>2021-10-04T14:41:32.280Z</time>
      </trkpt>
      <trkpt lat="43.44688" lon="6.77082">
        <ele>30.230695</ele>
        <time>2021-10-04T14:41:42.338Z</time>
      </trkpt>
      <trkpt lat="43.44687" lon="6.77071">
        <ele>30.341983</ele>
        <time>2021-10-04T14:41:44.576Z</time>
      </trkpt>
      <trkpt lat="43.44684" lon="6.77062">
        <ele>30.427327</ele>
        <time>2021-10-04T14:41:46.117Z</time>
      </trkpt>
      <trkpt lat="43.4469" lon="6.77049">
        <ele>30.57387</ele>
        <time>2021-10-04T14:41:50.224Z</time>
      </trkpt>
      <trkpt lat="43.44694" lon="6.77009">
        <ele>30.957982</ele>
        <time>2021-10-04T14:42:01.472Z</time>
      </trkpt>
      <trkpt lat="43.44695" lon="6.77005">
        <ele>31.000554</ele>
        <time>2021-10-04T14:42:02.769Z</time>
      </trkpt>
      <trkpt lat="43.44706" lon="6.77005">
        <ele>31.151239</ele>
        <time>2021-10-04T14:42:07.253Z</time>
      </trkpt>
      <trkpt lat="43.44724" lon="6.77006">
        <ele>31.38064</ele>
        <time>2021-10-04T14:42:14.387Z</time>
      </trkpt>
      <trkpt lat="43.44738" lon="6.7698">
        <ele>31.690109</ele>
        <time>2021-10-04T14:42:23.584Z</time>
      </trkpt>
      <trkpt lat="43.44742" lon="6.76974">
        <ele>31.762179</ele>
        <time>2021-10-04T14:42:26.493Z</time>
      </trkpt>
      <trkpt lat="43.44748" lon="6.76965">
        <ele>31.885003</ele>
        <time>2021-10-04T14:42:31.594Z</time>
      </trkpt>
      <trkpt lat="43.44817" lon="6.76908">
        <ele>34.851872</ele>
        <time>2021-10-04T14:43:14.973Z</time>
      </trkpt>
      <trkpt lat="43.44831" lon="6.76908">
        <ele>35.340467</ele>
        <time>2021-10-04T14:43:21.430Z</time>
      </trkpt>
      <trkpt lat="43.44863" lon="6.76924">
        <ele>36.597273</ele>
        <time>2021-10-04T14:43:38.995Z</time>
      </trkpt>
      <trkpt lat="43.44868" lon="6.76921">
        <ele>36.799478</ele>
        <time>2021-10-04T14:43:42.364Z</time>
      </trkpt>
      <trkpt lat="43.44878" lon="6.76908">
        <ele>37.28481</ele>
        <time>2021-10-04T14:43:50.273Z</time>
      </trkpt>
      <trkpt lat="43.44909" lon="6.76942">
        <ele>38.719153</ele>
        <time>2021-10-04T14:44:08.101Z</time>
      </trkpt>
      <trkpt lat="43.44933" lon="6.76963">
        <ele>39.692653</ele>
        <time>2021-10-04T14:44:21.169Z</time>
      </trkpt>
      <trkpt lat="43.44964" lon="6.76977">
        <ele>40.807082</ele>
        <time>2021-10-04T14:44:35.940Z</time>
      </trkpt>
      <trkpt lat="43.45029" lon="6.76997">
        <ele>43.081184</ele>
        <time>2021-10-04T14:45:09.126Z</time>
      </trkpt>
      <trkpt lat="43.45062" lon="6.77011">
        <ele>44.282769</ele>
        <time>2021-10-04T14:45:26.568Z</time>
      </trkpt>
      <trkpt lat="43.45077" lon="6.77036">
        <ele>45.164289</ele>
        <time>2021-10-04T14:45:38.377Z</time>
      </trkpt>
      <trkpt lat="43.45086" lon="6.7706">
        <ele>45.990074</ele>
        <time>2021-10-04T14:45:48.259Z</time>
      </trkpt>
      <trkpt lat="43.45096" lon="6.77068">
        <ele>46.470482</ele>
        <time>2021-10-04T14:45:54.627Z</time>
      </trkpt>
      <trkpt lat="43.45141" lon="6.77097">
        <ele>48.526327</ele>
        <time>2021-10-04T14:46:20.969Z</time>
      </trkpt>
      <trkpt lat="43.45216" lon="6.77158">
        <ele>52.075366</ele>
        <time>2021-10-04T14:47:07.321Z</time>
      </trkpt>
      <trkpt lat="43.45263" lon="6.77221">
        <ele>54.266067</ele>
        <time>2021-10-04T14:47:41.030Z</time>
      </trkpt>
      <trkpt lat="43.45297" lon="6.77252">
        <ele>55.626594</ele>
        <time>2021-10-04T14:48:00.386Z</time>
      </trkpt>
      <trkpt lat="43.45353" lon="6.7728">
        <ele>57.619502</ele>
        <time>2021-10-04T14:48:28.009Z</time>
      </trkpt>
      <trkpt lat="43.45404" lon="6.77329">
        <ele>59.30301</ele>
        <time>2021-10-04T14:48:56.011Z</time>
      </trkpt>
      <trkpt lat="43.45451" lon="6.77358">
        <ele>60.597615</ele>
        <time>2021-10-04T14:49:17.942Z</time>
      </trkpt>
      <trkpt lat="43.4551" lon="6.77432">
        <ele>62.609735</ele>
        <time>2021-10-04T14:49:53.148Z</time>
      </trkpt>
      <trkpt lat="43.45562" lon="6.77482">
        <ele>63.712857</ele>
        <time>2021-10-04T14:50:22.768Z</time>
      </trkpt>
      <trkpt lat="43.45574" lon="6.77521">
        <ele>64.241365</ele>
        <time>2021-10-04T14:50:35.877Z</time>
      </trkpt>
      <trkpt lat="43.4559" lon="6.77546">
        <ele>64.673703</ele>
        <time>2021-10-04T14:50:46.056Z</time>
      </trkpt>
      <trkpt lat="43.45603" lon="6.77559">
        <ele>64.942445</ele>
        <time>2021-10-04T14:50:53.003Z</time>
      </trkpt>
      <trkpt lat="43.45611" lon="6.77576">
        <ele>65.207645</ele>
        <time>2021-10-04T14:50:58.670Z</time>
      </trkpt>
      <trkpt lat="43.45607" lon="6.7763">
        <ele>65.400054</ele>
        <time>2021-10-04T14:51:10.700Z</time>
      </trkpt>
      <trkpt lat="43.45606" lon="6.77662">
        <ele>64.775504</ele>
        <time>2021-10-04T14:51:18.429Z</time>
      </trkpt>
      <trkpt lat="43.45629" lon="6.77696">
        <ele>63.844105</ele>
        <time>2021-10-04T14:51:28.057Z</time>
      </trkpt>
      <trkpt lat="43.45657" lon="6.77749">
        <ele>62.521031</ele>
        <time>2021-10-04T14:51:40.243Z</time>
      </trkpt>
      <trkpt lat="43.45676" lon="6.77777">
        <ele>61.768468</ele>
        <time>2021-10-04T14:51:47.128Z</time>
      </trkpt>
      <trkpt lat="43.45679" lon="6.77781">
        <ele>61.651017</ele>
        <time>2021-10-04T14:51:48.046Z</time>
      </trkpt>
      <trkpt lat="43.45713" lon="6.77817">
        <ele>60.292045</ele>
        <time>2021-10-04T14:51:58.695Z</time>
      </trkpt>
      <trkpt lat="43.45751" lon="6.77816">
        <ele>58.657643</ele>
        <time>2021-10-04T14:52:07.582Z</time>
      </trkpt>
      <trkpt lat="43.45752" lon="6.77814">
        <ele>58.568303</ele>
        <time>2021-10-04T14:52:07.982Z</time>
      </trkpt>
      <trkpt lat="43.45762" lon="6.77824">
        <ele>58.033011</ele>
        <time>2021-10-04T14:52:11.005Z</time>
      </trkpt>
      <trkpt lat="43.45832" lon="6.77878">
        <ele>54.558113</ele>
        <time>2021-10-04T14:52:30.425Z</time>
      </trkpt>
      <trkpt lat="43.45832" lon="6.77878">
        <ele>54.558113</ele>
        <time>2021-10-04T14:52:30.438Z</time>
      </trkpt>
      <trkpt lat="43.45856" lon="6.77866">
        <ele>53.41279</ele>
        <time>2021-10-04T14:52:37.295Z</time>
      </trkpt>
      <trkpt lat="43.45864" lon="6.77867">
        <ele>53.086151</ele>
        <time>2021-10-04T14:52:39.288Z</time>
      </trkpt>
      <trkpt lat="43.45894" lon="6.77852">
        <ele>52.772087</ele>
        <time>2021-10-04T14:52:47.896Z</time>
      </trkpt>
      <trkpt lat="43.45934" lon="6.77841">
        <ele>52.547964</ele>
        <time>2021-10-04T14:52:59.994Z</time>
      </trkpt>
      <trkpt lat="43.45961" lon="6.77843">
        <ele>52.397203</ele>
        <time>2021-10-04T14:53:08.489Z</time>
      </trkpt>
      <trkpt lat="43.45993" lon="6.77858">
        <ele>52.210185</ele>
        <time>2021-10-04T14:53:18.817Z</time>
      </trkpt>
      <trkpt lat="43.46006" lon="6.77867">
        <ele>52.12878</ele>
        <time>2021-10-04T14:53:23.593Z</time>
      </trkpt>
      <trkpt lat="43.46016" lon="6.77864">
        <ele>52.076882</ele>
        <time>2021-10-04T14:53:27.336Z</time>
      </trkpt>
      <trkpt lat="43.46063" lon="6.77885">
        <ele>52.402339</ele>
        <time>2021-10-04T14:53:45.964Z</time>
      </trkpt>
      <trkpt lat="43.46076" lon="6.77902">
        <ele>52.760281</ele>
        <time>2021-10-04T14:53:53.553Z</time>
      </trkpt>
      <trkpt lat="43.46103" lon="6.77914">
        <ele>53.320325</ele>
        <time>2021-10-04T14:54:05.005Z</time>
      </trkpt>
      <trkpt lat="43.46118" lon="6.77937">
        <ele>53.766388</ele>
        <time>2021-10-04T14:54:14.421Z</time>
      </trkpt>
      <trkpt lat="43.46125" lon="6.77942">
        <ele>53.915307</ele>
        <time>2021-10-04T14:54:17.661Z</time>
      </trkpt>
      <trkpt lat="43.46141" lon="6.7796">
        <ele>54.319394</ele>
        <time>2021-10-04T14:54:26.973Z</time>
      </trkpt>
      <trkpt lat="43.4619" lon="6.78037">
        <ele>55.946158</ele>
        <time>2021-10-04T14:54:59.340Z</time>
      </trkpt>
      <trkpt lat="43.46226" lon="6.78066">
        <ele>57.235479</ele>
        <time>2021-10-04T14:55:18.176Z</time>
      </trkpt>
      <trkpt lat="43.46279" lon="6.78089">
        <ele>58.935559</ele>
        <time>2021-10-04T14:55:44.059Z</time>
      </trkpt>
      <trkpt lat="43.4629" lon="6.78094">
        <ele>59.290161</ele>
        <time>2021-10-04T14:55:50.043Z</time>
      </trkpt>
      <trkpt lat="43.46335" lon="6.78118">
        <ele>60.770965</ele>
        <time>2021-10-04T14:56:13.259Z</time>
      </trkpt>
      <trkpt lat="43.46348" lon="6.78113">
        <ele>61.262126</ele>
        <time>2021-10-04T14:56:19.688Z</time>
      </trkpt>
      <trkpt lat="43.46355" lon="6.781">
        <ele>61.794717</ele>
        <time>2021-10-04T14:56:26.398Z</time>
      </trkpt>
      <trkpt lat="43.46432" lon="6.78089">
        <ele>65.142211</ele>
        <time>2021-10-04T14:56:56.622Z</time>
      </trkpt>
      <trkpt lat="43.46492" lon="6.7807">
        <ele>67.764655</ele>
        <time>2021-10-04T14:57:22.322Z</time>
      </trkpt>
      <trkpt lat="43.46544" lon="6.78069">
        <ele>70.143614</ele>
        <time>2021-10-04T14:57:47.067Z</time>
      </trkpt>
      <trkpt lat="43.46567" lon="6.78076">
        <ele>71.25241</ele>
        <time>2021-10-04T14:57:56.130Z</time>
      </trkpt>
      <trkpt lat="43.46595" lon="6.78109">
        <ele>73.00612</ele>
        <time>2021-10-04T14:58:12.021Z</time>
      </trkpt>
      <trkpt lat="43.466" lon="6.78117">
        <ele>73.365973</ele>
        <time>2021-10-04T14:58:16.693Z</time>
      </trkpt>
      <trkpt lat="43.46634" lon="6.7814">
        <ele>75.154244</ele>
        <time>2021-10-04T14:58:32.498Z</time>
      </trkpt>
      <trkpt lat="43.46707" lon="6.78157">
        <ele>78.506507</ele>
        <time>2021-10-04T14:59:02.599Z</time>
      </trkpt>
      <trkpt lat="43.46719" lon="6.78153">
        <ele>79.027057</ele>
        <time>2021-10-04T14:59:06.897Z</time>
      </trkpt>
      <trkpt lat="43.46825" lon="6.78074">
        <ele>84.180051</ele>
        <time>2021-10-04T14:59:54.245Z</time>
      </trkpt>
      <trkpt lat="43.46896" lon="6.78041">
        <ele>88.279515</ele>
        <time>2021-10-04T15:00:28.058Z</time>
      </trkpt>
      <trkpt lat="43.46904" lon="6.78032">
        <ele>88.887223</ele>
        <time>2021-10-04T15:00:32.069Z</time>
      </trkpt>
      <trkpt lat="43.46919" lon="6.77987">
        <ele>90.986618</ele>
        <time>2021-10-04T15:00:49.155Z</time>
      </trkpt>
      <trkpt lat="43.46923" lon="6.77983">
        <ele>91.239187</ele>
        <time>2021-10-04T15:00:51.954Z</time>
      </trkpt>
      <trkpt lat="43.46925" lon="6.77981">
        <ele>91.441242</ele>
        <time>2021-10-04T15:00:55.122Z</time>
      </trkpt>
      <trkpt lat="43.46993" lon="6.77932">
        <ele>95.888594</ele>
        <time>2021-10-04T15:01:34.385Z</time>
      </trkpt>
      <trkpt lat="43.47011" lon="6.77908">
        <ele>97.33693</ele>
        <time>2021-10-04T15:01:46.599Z</time>
      </trkpt>
      <trkpt lat="43.47039" lon="6.77833">
        <ele>100.876956</ele>
        <time>2021-10-04T15:02:19.053Z</time>
      </trkpt>
      <trkpt lat="43.47053" lon="6.77825">
        <ele>101.73023</ele>
        <time>2021-10-04T15:02:27.879Z</time>
      </trkpt>
      <trkpt lat="43.47068" lon="6.77827">
        <ele>102.569464</ele>
        <time>2021-10-04T15:02:32.487Z</time>
      </trkpt>
      <trkpt lat="43.471" lon="6.77852">
        <ele>104.697957</ele>
        <time>2021-10-04T15:02:48.384Z</time>
      </trkpt>
      <trkpt lat="43.47115" lon="6.77874">
        <ele>105.916646</ele>
        <time>2021-10-04T15:02:59.667Z</time>
      </trkpt>
      <trkpt lat="43.47125" lon="6.77878">
        <ele>106.29348</ele>
        <time>2021-10-04T15:03:02.520Z</time>
      </trkpt>
      <trkpt lat="43.47163" lon="6.77868">
        <ele>107.676661</ele>
        <time>2021-10-04T15:03:17.680Z</time>
      </trkpt>
      <trkpt lat="43.47178" lon="6.77873">
        <ele>108.235692</ele>
        <time>2021-10-04T15:03:24.845Z</time>
      </trkpt>
      <trkpt lat="43.47206" lon="6.77899">
        <ele>109.471142</ele>
        <time>2021-10-04T15:03:36.562Z</time>
      </trkpt>
      <trkpt lat="43.47216" lon="6.7792">
        <ele>110.108898</ele>
        <time>2021-10-04T15:03:42.483Z</time>
      </trkpt>
      <trkpt lat="43.47221" lon="6.77997">
        <ele>112.154912</ele>
        <time>2021-10-04T15:04:01.974Z</time>
      </trkpt>
      <trkpt lat="43.47243" lon="6.78058">
        <ele>114.413218</ele>
        <time>2021-10-04T15:04:18.670Z</time>
      </trkpt>
      <trkpt lat="43.47258" lon="6.7808">
        <ele>115.412604</ele>
        <time>2021-10-04T15:04:26.246Z</time>
      </trkpt>
      <trkpt lat="43.47283" lon="6.78086">
        <ele>116.592172</ele>
        <time>2021-10-04T15:04:36.072Z</time>
      </trkpt>
      <trkpt lat="43.47316" lon="6.78118">
        <ele>118.499316</ele>
        <time>2021-10-04T15:04:53.017Z</time>
      </trkpt>
      <trkpt lat="43.47332" lon="6.78127">
        <ele>119.290596</ele>
        <time>2021-10-04T15:05:00.665Z</time>
      </trkpt>
      <trkpt lat="43.47359" lon="6.7813">
        <ele>120.554692</ele>
        <time>2021-10-04T15:05:15.914Z</time>
      </trkpt>
      <trkpt lat="43.47391" lon="6.78147">
        <ele>123.731272</ele>
        <time>2021-10-04T15:05:36.475Z</time>
      </trkpt>
      <trkpt lat="43.47402" lon="6.78144">
        <ele>124.750399</ele>
        <time>2021-10-04T15:05:41.506Z</time>
      </trkpt>
      <trkpt lat="43.47447" lon="6.7809">
        <ele>130.550571</ele>
        <time>2021-10-04T15:06:23.093Z</time>
      </trkpt>
      <trkpt lat="43.47463" lon="6.78081">
        <ele>132.194956</ele>
        <time>2021-10-04T15:06:32.683Z</time>
      </trkpt>
      <trkpt lat="43.4748" lon="6.78082">
        <ele>133.856255</ele>
        <time>2021-10-04T15:06:47.898Z</time>
      </trkpt>
      <trkpt lat="43.47503" lon="6.78094">
        <ele>136.211126</ele>
        <time>2021-10-04T15:07:03.320Z</time>
      </trkpt>
      <trkpt lat="43.4752" lon="6.78096">
        <ele>137.818414</ele>
        <time>2021-10-04T15:07:19.191Z</time>
      </trkpt>
      <trkpt lat="43.47539" lon="6.78089">
        <ele>140.362479</ele>
        <time>2021-10-04T15:07:32.559Z</time>
      </trkpt>
      <trkpt lat="43.47625" lon="6.77998">
        <ele>154.675796</ele>
        <time>2021-10-04T15:09:07.064Z</time>
      </trkpt>
      <trkpt lat="43.47666" lon="6.77969">
        <ele>160.743677</ele>
        <time>2021-10-04T15:09:48.409Z</time>
      </trkpt>
      <trkpt lat="43.47704" lon="6.77961">
        <ele>165.640938</ele>
        <time>2021-10-04T15:10:21.919Z</time>
      </trkpt>
      <trkpt lat="43.47723" lon="6.77963">
        <ele>168.054315</ele>
        <time>2021-10-04T15:10:38.202Z</time>
      </trkpt>
      <trkpt lat="43.47738" lon="6.77973">
        <ele>170.144227</ele>
        <time>2021-10-04T15:10:52.623Z</time>
      </trkpt>
      <trkpt lat="43.4777" lon="6.78011">
        <ele>175.535607</ele>
        <time>2021-10-04T15:11:28.853Z</time>
      </trkpt>
      <trkpt lat="43.47832" lon="6.78053">
        <ele>184.337292</ele>
        <time>2021-10-04T15:12:24.616Z</time>
      </trkpt>
      <trkpt lat="43.4793" lon="6.78209">
        <ele>199.374895</ele>
        <time>2021-10-04T15:14:07.818Z</time>
      </trkpt>
      <trkpt lat="43.4798" lon="6.78256">
        <ele>205.443682</ele>
        <time>2021-10-04T15:14:46.195Z</time>
      </trkpt>
      <trkpt lat="43.48003" lon="6.7826">
        <ele>207.74876</ele>
        <time>2021-10-04T15:15:01.435Z</time>
      </trkpt>
      <trkpt lat="43.4802" lon="6.78238">
        <ele>210.059387</ele>
        <time>2021-10-04T15:15:17.172Z</time>
      </trkpt>
      <trkpt lat="43.48038" lon="6.78236">
        <ele>211.889106</ele>
        <time>2021-10-04T15:15:29.785Z</time>
      </trkpt>
      <trkpt lat="43.48075" lon="6.783">
        <ele>217.81677</ele>
        <time>2021-10-04T15:16:11.846Z</time>
      </trkpt>
      <trkpt lat="43.48084" lon="6.78306">
        <ele>218.807641</ele>
        <time>2021-10-04T15:16:18.987Z</time>
      </trkpt>
      <trkpt lat="43.48101" lon="6.78302">
        <ele>220.564127</ele>
        <time>2021-10-04T15:16:31.843Z</time>
      </trkpt>
      <trkpt lat="43.48121" lon="6.7828">
        <ele>223.274411</ele>
        <time>2021-10-04T15:16:50.599Z</time>
      </trkpt>
      <trkpt lat="43.48136" lon="6.78274">
        <ele>225.003642</ele>
        <time>2021-10-04T15:17:02.825Z</time>
      </trkpt>
      <trkpt lat="43.48293" lon="6.78423">
        <ele>245.275567</ele>
        <time>2021-10-04T15:19:22.440Z</time>
      </trkpt>
      <trkpt lat="43.48324" lon="6.78416">
        <ele>248.480976</ele>
        <time>2021-10-04T15:19:42.652Z</time>
      </trkpt>
      <trkpt lat="43.48369" lon="6.78377">
        <ele>253.863478</ele>
        <time>2021-10-04T15:20:17.025Z</time>
      </trkpt>
      <trkpt lat="43.4841" lon="6.78325">
        <ele>260.029496</ele>
        <time>2021-10-04T15:20:57.107Z</time>
      </trkpt>
      <trkpt lat="43.48432" lon="6.78316">
        <ele>263.334439</ele>
        <time>2021-10-04T15:21:15.075Z</time>
      </trkpt>
      <trkpt lat="43.48448" lon="6.78318">
        <ele>265.623313</ele>
        <time>2021-10-04T15:21:28.131Z</time>
      </trkpt>
      <trkpt lat="43.48483" lon="6.78356">
        <ele>272.019313</ele>
        <time>2021-10-04T15:22:07.889Z</time>
      </trkpt>
      <trkpt lat="43.48487" lon="6.78371">
        <ele>273.755777</ele>
        <time>2021-10-04T15:22:19.448Z</time>
      </trkpt>
      <trkpt lat="43.48484" lon="6.78417">
        <ele>278.560216</ele>
        <time>2021-10-04T15:22:52.563Z</time>
      </trkpt>
      <trkpt lat="43.48487" lon="6.78439">
        <ele>280.866682</ele>
        <time>2021-10-04T15:23:08.907Z</time>
      </trkpt>
      <trkpt lat="43.48502" lon="6.78472">
        <ele>284.944583</ele>
        <time>2021-10-04T15:23:38.460Z</time>
      </trkpt>
      <trkpt lat="43.48543" lon="6.78529">
        <ele>294.27258</ele>
        <time>2021-10-04T15:24:43.015Z</time>
      </trkpt>
      <trkpt lat="43.48592" lon="6.78702">
        <ele>314.504574</ele>
        <time>2021-10-04T15:26:53.671Z</time>
      </trkpt>
      <trkpt lat="43.48616" lon="6.78767">
        <ele>319.435622</ele>
        <time>2021-10-04T15:27:32.842Z</time>
      </trkpt>
      <trkpt lat="43.4862" lon="6.78834">
        <ele>324.028655</ele>
        <time>2021-10-04T15:28:04.266Z</time>
      </trkpt>
      <trkpt lat="43.48637" lon="6.78848">
        <ele>325.863353</ele>
        <time>2021-10-04T15:28:15.074Z</time>
      </trkpt>
      <trkpt lat="43.48721" lon="6.7887">
        <ele>331.496644</ele>
        <time>2021-10-04T15:28:52.957Z</time>
      </trkpt>
      <trkpt lat="43.48763" lon="6.78887">
        <ele>333.267564</ele>
        <time>2021-10-04T15:29:08.783Z</time>
      </trkpt>
      <trkpt lat="43.48796" lon="6.7892">
        <ele>334.929408</ele>
        <time>2021-10-04T15:29:22.215Z</time>
      </trkpt>
      <trkpt lat="43.48826" lon="6.78912">
        <ele>336.213762</ele>
        <time>2021-10-04T15:29:33.850Z</time>
      </trkpt>
      <trkpt lat="43.48865" lon="6.78915">
        <ele>337.888718</ele>
        <time>2021-10-04T15:29:50.200Z</time>
      </trkpt>
      <trkpt lat="43.48906" lon="6.78886">
        <ele>339.973545</ele>
        <time>2021-10-04T15:30:10.066Z</time>
      </trkpt>
      <trkpt lat="43.48927" lon="6.78878">
        <ele>340.951397</ele>
        <time>2021-10-04T15:30:18.943Z</time>
      </trkpt>
      <trkpt lat="43.48878" lon="6.78944">
        <ele>344.06189</ele>
        <time>2021-10-04T15:30:58.169Z</time>
      </trkpt>
      <trkpt lat="43.48841" lon="6.78944">
        <ele>345.195228</ele>
        <time>2021-10-04T15:31:18.159Z</time>
      </trkpt>
      <trkpt lat="43.48782" lon="6.78966">
        <ele>345.459468</ele>
        <time>2021-10-04T15:31:47.627Z</time>
      </trkpt>
      <trkpt lat="43.48739" lon="6.78953">
        <ele>345.649823</ele>
        <time>2021-10-04T15:32:02.880Z</time>
      </trkpt>
      <trkpt lat="43.48713" lon="6.78968">
        <ele>345.76913</ele>
        <time>2021-10-04T15:32:10.280Z</time>
      </trkpt>
      <trkpt lat="43.48685" lon="6.78951">
        <ele>345.901483</ele>
        <time>2021-10-04T15:32:17.873Z</time>
      </trkpt>
      <trkpt lat="43.48587" lon="6.78962">
        <ele>343.679529</ele>
        <time>2021-10-04T15:32:42.230Z</time>
      </trkpt>
      <trkpt lat="43.48574" lon="6.78994">
        <ele>343.068152</ele>
        <time>2021-10-04T15:32:49.096Z</time>
      </trkpt>
      <trkpt lat="43.48569" lon="6.79031">
        <ele>342.435621</ele>
        <time>2021-10-04T15:32:56.630Z</time>
      </trkpt>
      <trkpt lat="43.48557" lon="6.7907">
        <ele>341.79591</ele>
        <time>2021-10-04T15:33:06.789Z</time>
      </trkpt>
      <trkpt lat="43.48557" lon="6.79114">
        <ele>344.10933</ele>
        <time>2021-10-04T15:33:20.752Z</time>
      </trkpt>
      <trkpt lat="43.48564" lon="6.79163">
        <ele>346.698378</ele>
        <time>2021-10-04T15:33:40.689Z</time>
      </trkpt>
      <trkpt lat="43.48569" lon="6.79171">
        <ele>347.292254</ele>
        <time>2021-10-04T15:33:45.629Z</time>
      </trkpt>
      <trkpt lat="43.48602" lon="6.79189">
        <ele>349.902968</ele>
        <time>2021-10-04T15:34:12.096Z</time>
      </trkpt>
      <trkpt lat="43.48652" lon="6.79206">
        <ele>353.582244</ele>
        <time>2021-10-04T15:34:59.167Z</time>
      </trkpt>
      <trkpt lat="43.48665" lon="6.79228">
        <ele>355.23856</ele>
        <time>2021-10-04T15:35:18.538Z</time>
      </trkpt>
      <trkpt lat="43.48679" lon="6.7923">
        <ele>356.616684</ele>
        <time>2021-10-04T15:35:30.872Z</time>
      </trkpt>
      <trkpt lat="43.48694" lon="6.79223">
        <ele>358.318922</ele>
        <time>2021-10-04T15:35:45.392Z</time>
      </trkpt>
      <trkpt lat="43.4871" lon="6.79179">
        <ele>361.930026</ele>
        <time>2021-10-04T15:36:16.371Z</time>
      </trkpt>
      <trkpt lat="43.48749" lon="6.79139">
        <ele>366.965013</ele>
        <time>2021-10-04T15:36:58.158Z</time>
      </trkpt>
      <trkpt lat="43.4876" lon="6.79135">
        <ele>368.042119</ele>
        <time>2021-10-04T15:37:06.059Z</time>
      </trkpt>
      <trkpt lat="43.48774" lon="6.79144">
        <ele>369.65007</ele>
        <time>2021-10-04T15:37:18.440Z</time>
      </trkpt>
      <trkpt lat="43.48797" lon="6.79186">
        <ele>373.461899</ele>
        <time>2021-10-04T15:37:47.613Z</time>
      </trkpt>
      <trkpt lat="43.48845" lon="6.79219">
        <ele>376.813171</ele>
        <time>2021-10-04T15:38:25.101Z</time>
      </trkpt>
      <trkpt lat="43.48876" lon="6.7923">
        <ele>378.880143</ele>
        <time>2021-10-04T15:38:46.093Z</time>
      </trkpt>
      <trkpt lat="43.48894" lon="6.79244">
        <ele>380.172954</ele>
        <time>2021-10-04T15:38:57.626Z</time>
      </trkpt>
      <trkpt lat="43.48915" lon="6.79301">
        <ele>383.064891</ele>
        <time>2021-10-04T15:39:25.438Z</time>
      </trkpt>
      <trkpt lat="43.48989" lon="6.79327">
        <ele>385.234707</ele>
        <time>2021-10-04T15:40:07.152Z</time>
      </trkpt>
      <trkpt lat="43.49019" lon="6.79369">
        <ele>385.758891</ele>
        <time>2021-10-04T15:40:25.237Z</time>
      </trkpt>
      <trkpt lat="43.49029" lon="6.79371">
        <ele>385.887687</ele>
        <time>2021-10-04T15:40:30.351Z</time>
      </trkpt>
      <trkpt lat="43.49033" lon="6.79376">
        <ele>385.954275</ele>
        <time>2021-10-04T15:40:32.104Z</time>
      </trkpt>
      <trkpt lat="43.49091" lon="6.79389">
        <ele>386.679177</ele>
        <time>2021-10-04T15:40:49.264Z</time>
      </trkpt>
      <trkpt lat="43.4912" lon="6.79418">
        <ele>385.274586</ele>
        <time>2021-10-04T15:40:58.492Z</time>
      </trkpt>
      <trkpt lat="43.49145" lon="6.79515">
        <ele>380.726195</ele>
        <time>2021-10-04T15:41:16.057Z</time>
      </trkpt>
      <trkpt lat="43.49146" lon="6.79605">
        <ele>376.75994</ele>
        <time>2021-10-04T15:41:30.556Z</time>
      </trkpt>
      <trkpt lat="43.49157" lon="6.79647">
        <ele>374.593119</ele>
        <time>2021-10-04T15:41:37.761Z</time>
      </trkpt>
      <trkpt lat="43.49157" lon="6.79679">
        <ele>372.923654</ele>
        <time>2021-10-04T15:41:42.972Z</time>
      </trkpt>
      <trkpt lat="43.49168" lon="6.79707">
        <ele>371.283604</ele>
        <time>2021-10-04T15:41:48.114Z</time>
      </trkpt>
      <trkpt lat="43.49194" lon="6.79741">
        <ele>368.712957</ele>
        <time>2021-10-04T15:41:56.229Z</time>
      </trkpt>
      <trkpt lat="43.49224" lon="6.79792">
        <ele>365.303876</ele>
        <time>2021-10-04T15:42:07.133Z</time>
      </trkpt>
      <trkpt lat="43.49257" lon="6.79871">
        <ele>360.701295</ele>
        <time>2021-10-04T15:42:22.401Z</time>
      </trkpt>
      <trkpt lat="43.49313" lon="6.79941">
        <ele>355.579836</ele>
        <time>2021-10-04T15:42:40.330Z</time>
      </trkpt>
      <trkpt lat="43.49353" lon="6.79972">
        <ele>352.49389</ele>
        <time>2021-10-04T15:42:50.812Z</time>
      </trkpt>
      <trkpt lat="43.49367" lon="6.79995">
        <ele>351.051756</ele>
        <time>2021-10-04T15:42:55.436Z</time>
      </trkpt>
      <trkpt lat="43.49394" lon="6.80027">
        <ele>348.5932</ele>
        <time>2021-10-04T15:43:03.279Z</time>
      </trkpt>
      <trkpt lat="43.49425" lon="6.80053">
        <ele>346.05336</ele>
        <time>2021-10-04T15:43:11.285Z</time>
      </trkpt>
      <trkpt lat="43.49435" lon="6.80057">
        <ele>345.282818</ele>
        <time>2021-10-04T15:43:13.818Z</time>
      </trkpt>
      <trkpt lat="43.49434" lon="6.80089">
        <ele>343.662515</ele>
        <time>2021-10-04T15:43:16.661Z</time>
      </trkpt>
      <trkpt lat="43.49426" lon="6.80149">
        <ele>340.586045</ele>
        <time>2021-10-04T15:43:22.215Z</time>
      </trkpt>
      <trkpt lat="43.49436" lon="6.80182">
        <ele>338.755472</ele>
        <time>2021-10-04T15:43:25.771Z</time>
      </trkpt>
      <trkpt lat="43.49446" lon="6.80195">
        <ele>338.15441</ele>
        <time>2021-10-04T15:43:27.519Z</time>
      </trkpt>
      <trkpt lat="43.49437" lon="6.80194">
        <ele>337.969435</ele>
        <time>2021-10-04T15:43:29.793Z</time>
      </trkpt>
      <trkpt lat="43.4943" lon="6.8019">
        <ele>337.816215</ele>
        <time>2021-10-04T15:43:31.603Z</time>
      </trkpt>
      <trkpt lat="43.4942" lon="6.8017">
        <ele>337.432943</ele>
        <time>2021-10-04T15:43:35.997Z</time>
      </trkpt>
      <trkpt lat="43.49407" lon="6.80095">
        <ele>336.275175</ele>
        <time>2021-10-04T15:43:50.613Z</time>
      </trkpt>
      <trkpt lat="43.49401" lon="6.80084">
        <ele>336.055164</ele>
        <time>2021-10-04T15:43:53.489Z</time>
      </trkpt>
      <trkpt lat="43.49355" lon="6.80047">
        <ele>334.936765</ele>
        <time>2021-10-04T15:44:09.751Z</time>
      </trkpt>
      <trkpt lat="43.49295" lon="6.80011">
        <ele>333.02889</ele>
        <time>2021-10-04T15:44:37.017Z</time>
      </trkpt>
      <trkpt lat="43.49277" lon="6.8001">
        <ele>332.467351</ele>
        <time>2021-10-04T15:44:41.185Z</time>
      </trkpt>
      <trkpt lat="43.49245" lon="6.80024">
        <ele>331.354601</ele>
        <time>2021-10-04T15:44:50.106Z</time>
      </trkpt>
      <trkpt lat="43.49231" lon="6.80022">
        <ele>330.920645</ele>
        <time>2021-10-04T15:44:53.972Z</time>
      </trkpt>
      <trkpt lat="43.49197" lon="6.79996">
        <ele>329.662894</ele>
        <time>2021-10-04T15:45:03.337Z</time>
      </trkpt>
      <trkpt lat="43.49168" lon="6.79988">
        <ele>328.687376</ele>
        <time>2021-10-04T15:45:10.154Z</time>
      </trkpt>
      <trkpt lat="43.49159" lon="6.79993">
        <ele>327.849985</ele>
        <time>2021-10-04T15:45:12.583Z</time>
      </trkpt>
      <trkpt lat="43.49144" lon="6.79998">
        <ele>326.592051</ele>
        <time>2021-10-04T15:45:15.669Z</time>
      </trkpt>
      <trkpt lat="43.49096" lon="6.79999">
        <ele>322.468968</ele>
        <time>2021-10-04T15:45:26.397Z</time>
      </trkpt>
      <trkpt lat="43.49071" lon="6.8001">
        <ele>320.266702</ele>
        <time>2021-10-04T15:45:31.875Z</time>
      </trkpt>
      <trkpt lat="43.49055" lon="6.80033">
        <ele>318.285323</ele>
        <time>2021-10-04T15:45:37.040Z</time>
      </trkpt>
      <trkpt lat="43.49036" lon="6.8015">
        <ele>312.174362</ele>
        <time>2021-10-04T15:45:56.101Z</time>
      </trkpt>
      <trkpt lat="43.49033" lon="6.80197">
        <ele>310.77556</ele>
        <time>2021-10-04T15:46:04.307Z</time>
      </trkpt>
      <trkpt lat="43.49057" lon="6.80313">
        <ele>307.195649</ele>
        <time>2021-10-04T15:46:28.099Z</time>
      </trkpt>
      <trkpt lat="43.49065" lon="6.80313">
        <ele>306.905158</ele>
        <time>2021-10-04T15:46:30.318Z</time>
      </trkpt>
      <trkpt lat="43.49213" lon="6.80165">
        <ele>300.237174</ele>
        <time>2021-10-04T15:47:19.767Z</time>
      </trkpt>
      <trkpt lat="43.49232" lon="6.80164">
        <ele>299.513369</ele>
        <time>2021-10-04T15:47:23.748Z</time>
      </trkpt>
      <trkpt lat="43.49263" lon="6.80202">
        <ele>295.576733</ele>
        <time>2021-10-04T15:47:32.864Z</time>
      </trkpt>
      <trkpt lat="43.49299" lon="6.802">
        <ele>292.194354</ele>
        <time>2021-10-04T15:47:40.548Z</time>
      </trkpt>
      <trkpt lat="43.49305" lon="6.80217">
        <ele>290.885255</ele>
        <time>2021-10-04T15:47:43.598Z</time>
      </trkpt>
      <trkpt lat="43.49304" lon="6.80244">
        <ele>289.028293</ele>
        <time>2021-10-04T15:47:47.679Z</time>
      </trkpt>
      <trkpt lat="43.49305" lon="6.80271">
        <ele>287.205549</ele>
        <time>2021-10-04T15:47:51.773Z</time>
      </trkpt>
      <trkpt lat="43.49314" lon="6.8035">
        <ele>282.000865</ele>
        <time>2021-10-04T15:48:04.187Z</time>
      </trkpt>
      <trkpt lat="43.49321" lon="6.80378">
        <ele>280.578925</ele>
        <time>2021-10-04T15:48:08.925Z</time>
      </trkpt>
      <trkpt lat="43.49342" lon="6.80407">
        <ele>278.654411</ele>
        <time>2021-10-04T15:48:15.375Z</time>
      </trkpt>
      <trkpt lat="43.49478" lon="6.80446">
        <ele>270.172894</ele>
        <time>2021-10-04T15:48:48.852Z</time>
      </trkpt>
      <trkpt lat="43.49487" lon="6.80459">
        <ele>269.724024</ele>
        <time>2021-10-04T15:48:52.028Z</time>
      </trkpt>
      <trkpt lat="43.49485" lon="6.80472">
        <ele>269.38812</ele>
        <time>2021-10-04T15:48:54.438Z</time>
      </trkpt>
      <trkpt lat="43.49421" lon="6.80498">
        <ele>267.036163</ele>
        <time>2021-10-04T15:49:11.210Z</time>
      </trkpt>
      <trkpt lat="43.49396" lon="6.80523">
        <ele>265.954279</ele>
        <time>2021-10-04T15:49:19.074Z</time>
      </trkpt>
      <trkpt lat="43.49356" lon="6.80601">
        <ele>263.771515</ele>
        <time>2021-10-04T15:49:37.754Z</time>
      </trkpt>
      <trkpt lat="43.49354" lon="6.80616">
        <ele>263.473039</ele>
        <time>2021-10-04T15:49:42.124Z</time>
      </trkpt>
      <trkpt lat="43.49364" lon="6.80668">
        <ele>262.404883</ele>
        <time>2021-10-04T15:49:53.781Z</time>
      </trkpt>
      <trkpt lat="43.49366" lon="6.8071">
        <ele>261.577284</ele>
        <time>2021-10-04T15:50:01.945Z</time>
      </trkpt>
      <trkpt lat="43.49398" lon="6.80785">
        <ele>259.869368</ele>
        <time>2021-10-04T15:50:18.150Z</time>
      </trkpt>
      <trkpt lat="43.49405" lon="6.80821">
        <ele>257.796773</ele>
        <time>2021-10-04T15:50:25.046Z</time>
      </trkpt>
      <trkpt lat="43.49401" lon="6.80842">
        <ele>256.293706</ele>
        <time>2021-10-04T15:50:28.445Z</time>
      </trkpt>
      <trkpt lat="43.49387" lon="6.80921">
        <ele>250.673633</ele>
        <time>2021-10-04T15:50:41.773Z</time>
      </trkpt>
      <trkpt lat="43.49371" lon="6.80963">
        <ele>247.487937</ele>
        <time>2021-10-04T15:50:48.888Z</time>
      </trkpt>
      <trkpt lat="43.49361" lon="6.80975">
        <ele>246.192962</ele>
        <time>2021-10-04T15:50:51.631Z</time>
      </trkpt>
      <trkpt lat="43.49335" lon="6.80998">
        <ele>243.262564</ele>
        <time>2021-10-04T15:50:58.010Z</time>
      </trkpt>
      <trkpt lat="43.49247" lon="6.81011">
        <ele>234.267829</ele>
        <time>2021-10-04T15:51:16.036Z</time>
      </trkpt>
      <trkpt lat="43.49225" lon="6.81002">
        <ele>231.845477</ele>
        <time>2021-10-04T15:51:21.021Z</time>
      </trkpt>
      <trkpt lat="43.49154" lon="6.80934">
        <ele>224.038611</ele>
        <time>2021-10-04T15:51:40.371Z</time>
      </trkpt>
      <trkpt lat="43.4914" lon="6.80914">
        <ele>223.836651</ele>
        <time>2021-10-04T15:51:45.559Z</time>
      </trkpt>
      <trkpt lat="43.49136" lon="6.80886">
        <ele>223.633518</ele>
        <time>2021-10-04T15:51:51.235Z</time>
      </trkpt>
      <trkpt lat="43.49134" lon="6.80868">
        <ele>223.504919</ele>
        <time>2021-10-04T15:51:55.039Z</time>
      </trkpt>
      <trkpt lat="43.4914" lon="6.80813">
        <ele>223.110311</ele>
        <time>2021-10-04T15:52:08.985Z</time>
      </trkpt>
      <trkpt lat="43.49157" lon="6.80759">
        <ele>222.690043</ele>
        <time>2021-10-04T15:52:25.908Z</time>
      </trkpt>
      <trkpt lat="43.49191" lon="6.80706">
        <ele>222.005138</ele>
        <time>2021-10-04T15:52:46.910Z</time>
      </trkpt>
      <trkpt lat="43.49212" lon="6.80685">
        <ele>221.515536</ele>
        <time>2021-10-04T15:52:56.420Z</time>
      </trkpt>
      <trkpt lat="43.49218" lon="6.80664">
        <ele>221.212139</ele>
        <time>2021-10-04T15:53:01.664Z</time>
      </trkpt>
      <trkpt lat="43.49249" lon="6.80631">
        <ele>220.488841</ele>
        <time>2021-10-04T15:53:12.791Z</time>
      </trkpt>
      <trkpt lat="43.49244" lon="6.80623">
        <ele>220.34205</ele>
        <time>2021-10-04T15:53:14.879Z</time>
      </trkpt>
      <trkpt lat="43.49215" lon="6.80653">
        <ele>219.659824</ele>
        <time>2021-10-04T15:53:24.210Z</time>
      </trkpt>
      <trkpt lat="43.49203" lon="6.80653">
        <ele>219.441919</ele>
        <time>2021-10-04T15:53:27.056Z</time>
      </trkpt>
      <trkpt lat="43.49186" lon="6.8068">
        <ele>218.832904</ele>
        <time>2021-10-04T15:53:33.312Z</time>
      </trkpt>
      <trkpt lat="43.49163" lon="6.80699">
        <ele>217.258116</ele>
        <time>2021-10-04T15:53:39.458Z</time>
      </trkpt>
      <trkpt lat="43.49115" lon="6.80759">
        <ele>213.448373</ele>
        <time>2021-10-04T15:53:53.966Z</time>
      </trkpt>
      <trkpt lat="43.49106" lon="6.80801">
        <ele>211.564012</ele>
        <time>2021-10-04T15:54:01.195Z</time>
      </trkpt>
      <trkpt lat="43.49081" lon="6.8087">
        <ele>208.374893</ele>
        <time>2021-10-04T15:54:14.426Z</time>
      </trkpt>
      <trkpt lat="43.49073" lon="6.80942">
        <ele>208.606412</ele>
        <time>2021-10-04T15:54:28.365Z</time>
      </trkpt>
      <trkpt lat="43.49084" lon="6.80968">
        <ele>208.701893</ele>
        <time>2021-10-04T15:54:34.970Z</time>
      </trkpt>
      <trkpt lat="43.49171" lon="6.81101">
        <ele>209.505342</ele>
        <time>2021-10-04T15:55:35.984Z</time>
      </trkpt>
      <trkpt lat="43.49181" lon="6.81113">
        <ele>209.673362</ele>
        <time>2021-10-04T15:55:42.543Z</time>
      </trkpt>
      <trkpt lat="43.49214" lon="6.81124">
        <ele>210.113768</ele>
        <time>2021-10-04T15:55:59.694Z</time>
      </trkpt>
      <trkpt lat="43.49209" lon="6.81137">
        <ele>210.251426</ele>
        <time>2021-10-04T15:56:04.790Z</time>
      </trkpt>
      <trkpt lat="43.49161" lon="6.81138">
        <ele>210.87856</ele>
        <time>2021-10-04T15:56:24.035Z</time>
      </trkpt>
      <trkpt lat="43.49085" lon="6.81077">
        <ele>208.793837</ele>
        <time>2021-10-04T15:56:48.471Z</time>
      </trkpt>
      <trkpt lat="43.49047" lon="6.81035">
        <ele>205.544268</ele>
        <time>2021-10-04T15:56:59.985Z</time>
      </trkpt>
      <trkpt lat="43.49014" lon="6.81009">
        <ele>203.012123</ele>
        <time>2021-10-04T15:57:08.442Z</time>
      </trkpt>
      <trkpt lat="43.48945" lon="6.80957">
        <ele>196.58214</ele>
        <time>2021-10-04T15:57:25.050Z</time>
      </trkpt>
      <trkpt lat="43.48893" lon="6.80935">
        <ele>190.571747</ele>
        <time>2021-10-04T15:57:36.479Z</time>
      </trkpt>
      <trkpt lat="43.48882" lon="6.80928">
        <ele>189.195106</ele>
        <time>2021-10-04T15:57:39.091Z</time>
      </trkpt>
      <trkpt lat="43.48875" lon="6.80924">
        <ele>188.280738</ele>
        <time>2021-10-04T15:57:40.711Z</time>
      </trkpt>
      <trkpt lat="43.48827" lon="6.80886">
        <ele>182.176995</ele>
        <time>2021-10-04T15:57:52.406Z</time>
      </trkpt>
      <trkpt lat="43.48797" lon="6.80851">
        <ele>178.19321</ele>
        <time>2021-10-04T15:58:00.696Z</time>
      </trkpt>
      <trkpt lat="43.48757" lon="6.80827">
        <ele>174.428072</ele>
        <time>2021-10-04T15:58:10.079Z</time>
      </trkpt>
      <trkpt lat="43.48748" lon="6.80824">
        <ele>173.685027</ele>
        <time>2021-10-04T15:58:11.858Z</time>
      </trkpt>
      <trkpt lat="43.48704" lon="6.80834">
        <ele>169.902103</ele>
        <time>2021-10-04T15:58:21.954Z</time>
      </trkpt>
      <trkpt lat="43.48676" lon="6.80818">
        <ele>167.264064</ele>
        <time>2021-10-04T15:58:29.006Z</time>
      </trkpt>
      <trkpt lat="43.48602" lon="6.80798">
        <ele>161.572985</ele>
        <time>2021-10-04T15:58:46.294Z</time>
      </trkpt>
      <trkpt lat="43.48571" lon="6.80781">
        <ele>159.402221</ele>
        <time>2021-10-04T15:58:53.943Z</time>
      </trkpt>
      <trkpt lat="43.48458" lon="6.80759">
        <ele>151.97846</ele>
        <time>2021-10-04T15:59:20.401Z</time>
      </trkpt>
      <trkpt lat="43.48398" lon="6.80732">
        <ele>149.033978</ele>
        <time>2021-10-04T15:59:34.705Z</time>
      </trkpt>
      <trkpt lat="43.48381" lon="6.80735">
        <ele>148.217911</ele>
        <time>2021-10-04T15:59:38.758Z</time>
      </trkpt>
      <trkpt lat="43.48366" lon="6.80745">
        <ele>147.461568</ele>
        <time>2021-10-04T15:59:42.767Z</time>
      </trkpt>
      <trkpt lat="43.48358" lon="6.80753">
        <ele>146.975352</ele>
        <time>2021-10-04T15:59:45.070Z</time>
      </trkpt>
      <trkpt lat="43.48329" lon="6.80762">
        <ele>145.605326</ele>
        <time>2021-10-04T15:59:52.591Z</time>
      </trkpt>
      <trkpt lat="43.48299" lon="6.80764">
        <ele>144.219356</ele>
        <time>2021-10-04T16:00:01.119Z</time>
      </trkpt>
      <trkpt lat="43.48293" lon="6.80757">
        <ele>143.849429</ele>
        <time>2021-10-04T16:00:02.937Z</time>
      </trkpt>
      <trkpt lat="43.48292" lon="6.80747">
        <ele>144.117207</ele>
        <time>2021-10-04T16:00:05.019Z</time>
      </trkpt>
      <trkpt lat="43.48291" lon="6.80739">
        <ele>144.36443</ele>
        <time>2021-10-04T16:00:07.325Z</time>
      </trkpt>
      <trkpt lat="43.48275" lon="6.80708">
        <ele>145.488094</ele>
        <time>2021-10-04T16:00:15.646Z</time>
      </trkpt>
      <trkpt lat="43.48232" lon="6.80689">
        <ele>147.328785</ele>
        <time>2021-10-04T16:00:35.138Z</time>
      </trkpt>
      <trkpt lat="43.48226" lon="6.80565">
        <ele>151.015877</ele>
        <time>2021-10-04T16:01:35.376Z</time>
      </trkpt>
      <trkpt lat="43.48228" lon="6.80534">
        <ele>152.864391</ele>
        <time>2021-10-04T16:01:53.443Z</time>
      </trkpt>
      <trkpt lat="43.48236" lon="6.80497">
        <ele>155.406762</ele>
        <time>2021-10-04T16:02:16.043Z</time>
      </trkpt>
      <trkpt lat="43.48244" lon="6.80482">
        <ele>156.688374</ele>
        <time>2021-10-04T16:02:27.395Z</time>
      </trkpt>
      <trkpt lat="43.48244" lon="6.80426">
        <ele>160.372012</ele>
        <time>2021-10-04T16:02:59.564Z</time>
      </trkpt>
      <trkpt lat="43.48236" lon="6.80423">
        <ele>161.063848</ele>
        <time>2021-10-04T16:03:05.416Z</time>
      </trkpt>
      <trkpt lat="43.48223" lon="6.80456">
        <ele>163.553868</ele>
        <time>2021-10-04T16:03:26.138Z</time>
      </trkpt>
      <trkpt lat="43.48177" lon="6.80483">
        <ele>168.186719</ele>
        <time>2021-10-04T16:04:05.706Z</time>
      </trkpt>
      <trkpt lat="43.48128" lon="6.8053">
        <ele>174.173132</ele>
        <time>2021-10-04T16:04:50.634Z</time>
      </trkpt>
      <trkpt lat="43.48113" lon="6.80536">
        <ele>175.751499</ele>
        <time>2021-10-04T16:05:04.013Z</time>
      </trkpt>
      <trkpt lat="43.48099" lon="6.80574">
        <ele>178.885063</ele>
        <time>2021-10-04T16:05:28.575Z</time>
      </trkpt>
      <trkpt lat="43.48083" lon="6.80589">
        <ele>180.888941</ele>
        <time>2021-10-04T16:05:43.951Z</time>
      </trkpt>
      <trkpt lat="43.4807" lon="6.80591">
        <ele>182.154938</ele>
        <time>2021-10-04T16:05:54.604Z</time>
      </trkpt>
      <trkpt lat="43.48072" lon="6.80584">
        <ele>182.704918</ele>
        <time>2021-10-04T16:06:00.871Z</time>
      </trkpt>
      <trkpt lat="43.48083" lon="6.80562">
        <ele>184.672552</ele>
        <time>2021-10-04T16:06:16.368Z</time>
      </trkpt>
      <trkpt lat="43.48083" lon="6.80538">
        <ele>186.643235</ele>
        <time>2021-10-04T16:06:33.562Z</time>
      </trkpt>
      <trkpt lat="43.48088" lon="6.80515">
        <ele>189.073083</ele>
        <time>2021-10-04T16:06:48.582Z</time>
      </trkpt>
      <trkpt lat="43.4811" lon="6.80474">
        <ele>194.210885</ele>
        <time>2021-10-04T16:07:24.986Z</time>
      </trkpt>
      <trkpt lat="43.4813" lon="6.80414">
        <ele>200.848879</ele>
        <time>2021-10-04T16:08:15.650Z</time>
      </trkpt>
      <trkpt lat="43.4815" lon="6.80381">
        <ele>205.237682</ele>
        <time>2021-10-04T16:08:50.024Z</time>
      </trkpt>
      <trkpt lat="43.48152" lon="6.80358">
        <ele>207.565185</ele>
        <time>2021-10-04T16:09:07.803Z</time>
      </trkpt>
      <trkpt lat="43.48142" lon="6.80321">
        <ele>211.518504</ele>
        <time>2021-10-04T16:09:38.676Z</time>
      </trkpt>
      <trkpt lat="43.48079" lon="6.80222">
        <ele>223.881505</ele>
        <time>2021-10-04T16:11:16.570Z</time>
      </trkpt>
      <trkpt lat="43.48066" lon="6.80188">
        <ele>227.523422</ele>
        <time>2021-10-04T16:11:43.198Z</time>
      </trkpt>
      <trkpt lat="43.48054" lon="6.8011">
        <ele>234.553697</ele>
        <time>2021-10-04T16:12:37.144Z</time>
      </trkpt>
      <trkpt lat="43.48043" lon="6.79951">
        <ele>240.682097</ele>
        <time>2021-10-04T16:13:59.132Z</time>
      </trkpt>
      <trkpt lat="43.48052" lon="6.79899">
        <ele>242.710287</ele>
        <time>2021-10-04T16:14:11.286Z</time>
      </trkpt>
      <trkpt lat="43.48057" lon="6.79874">
        <ele>243.681022</ele>
        <time>2021-10-04T16:14:16.803Z</time>
      </trkpt>
      <trkpt lat="43.48092" lon="6.79826">
        <ele>241.391991</ele>
        <time>2021-10-04T16:14:29.279Z</time>
      </trkpt>
      <trkpt lat="43.48111" lon="6.79762">
        <ele>239.061495</ele>
        <time>2021-10-04T16:14:41.955Z</time>
      </trkpt>
      <trkpt lat="43.48111" lon="6.79744">
        <ele>238.452298</ele>
        <time>2021-10-04T16:14:44.946Z</time>
      </trkpt>
      <trkpt lat="43.48111" lon="6.79739">
        <ele>238.297567</ele>
        <time>2021-10-04T16:14:45.585Z</time>
      </trkpt>
      <trkpt lat="43.48091" lon="6.79676">
        <ele>235.982427</ele>
        <time>2021-10-04T16:14:57.102Z</time>
      </trkpt>
      <trkpt lat="43.48082" lon="6.79619">
        <ele>234.297034</ele>
        <time>2021-10-04T16:15:06.955Z</time>
      </trkpt>
      <trkpt lat="43.4809" lon="6.79571">
        <ele>232.962721</ele>
        <time>2021-10-04T16:15:15.456Z</time>
      </trkpt>
      <trkpt lat="43.48111" lon="6.79541">
        <ele>231.831098</ele>
        <time>2021-10-04T16:15:22.695Z</time>
      </trkpt>
      <trkpt lat="43.48185" lon="6.79482">
        <ele>228.674526</ele>
        <time>2021-10-04T16:15:47.295Z</time>
      </trkpt>
      <trkpt lat="43.48235" lon="6.79449">
        <ele>226.290789</ele>
        <time>2021-10-04T16:16:02.966Z</time>
      </trkpt>
      <trkpt lat="43.48274" lon="6.79437">
        <ele>224.614693</ele>
        <time>2021-10-04T16:16:13.637Z</time>
      </trkpt>
      <trkpt lat="43.48309" lon="6.79447">
        <ele>223.104026</ele>
        <time>2021-10-04T16:16:22.822Z</time>
      </trkpt>
      <trkpt lat="43.48328" lon="6.79458">
        <ele>222.225694</ele>
        <time>2021-10-04T16:16:27.207Z</time>
      </trkpt>
      <trkpt lat="43.48338" lon="6.79456">
        <ele>221.779953</ele>
        <time>2021-10-04T16:16:29.808Z</time>
      </trkpt>
      <trkpt lat="43.48343" lon="6.79448">
        <ele>221.469143</ele>
        <time>2021-10-04T16:16:31.587Z</time>
      </trkpt>
      <trkpt lat="43.48322" lon="6.79382">
        <ele>216.775039</ele>
        <time>2021-10-04T16:16:42.694Z</time>
      </trkpt>
      <trkpt lat="43.483" lon="6.79358">
        <ele>213.893598</ele>
        <time>2021-10-04T16:16:48.932Z</time>
      </trkpt>
      <trkpt lat="43.48296" lon="6.79336">
        <ele>212.250416</ele>
        <time>2021-10-04T16:16:52.389Z</time>
      </trkpt>
      <trkpt lat="43.48298" lon="6.79318">
        <ele>210.913965</ele>
        <time>2021-10-04T16:16:55.412Z</time>
      </trkpt>
      <trkpt lat="43.48297" lon="6.79307">
        <ele>210.101092</ele>
        <time>2021-10-04T16:16:57.009Z</time>
      </trkpt>
      <trkpt lat="43.48291" lon="6.79303">
        <ele>209.487084</ele>
        <time>2021-10-04T16:16:58.249Z</time>
      </trkpt>
      <trkpt lat="43.48266" lon="6.79323">
        <ele>206.538641</ele>
        <time>2021-10-04T16:17:04.567Z</time>
      </trkpt>
      <trkpt lat="43.48221" lon="6.7934">
        <ele>202.023547</ele>
        <time>2021-10-04T16:17:14.372Z</time>
      </trkpt>
      <trkpt lat="43.48209" lon="6.7934">
        <ele>201.009279</ele>
        <time>2021-10-04T16:17:17.076Z</time>
      </trkpt>
      <trkpt lat="43.48134" lon="6.79302">
        <ele>194.190033</ele>
        <time>2021-10-04T16:17:34.213Z</time>
      </trkpt>
      <trkpt lat="43.48112" lon="6.79317">
        <ele>192.063005</ele>
        <time>2021-10-04T16:17:39.966Z</time>
      </trkpt>
      <trkpt lat="43.48102" lon="6.79316">
        <ele>191.253336</ele>
        <time>2021-10-04T16:17:42.174Z</time>
      </trkpt>
      <trkpt lat="43.48071" lon="6.79292">
        <ele>188.22394</ele>
        <time>2021-10-04T16:17:50.410Z</time>
      </trkpt>
      <trkpt lat="43.48054" lon="6.7931">
        <ele>186.820261</ele>
        <time>2021-10-04T16:17:55.616Z</time>
      </trkpt>
      <trkpt lat="43.48028" lon="6.79319">
        <ele>185.460944</ele>
        <time>2021-10-04T16:18:01.749Z</time>
      </trkpt>
      <trkpt lat="43.47985" lon="6.79315">
        <ele>183.232573</ele>
        <time>2021-10-04T16:18:11.880Z</time>
      </trkpt>
      <trkpt lat="43.47896" lon="6.79357">
        <ele>178.351605</ele>
        <time>2021-10-04T16:18:34.673Z</time>
      </trkpt>
      <trkpt lat="43.47879" lon="6.79359">
        <ele>177.822307</ele>
        <time>2021-10-04T16:18:38.995Z</time>
      </trkpt>
      <trkpt lat="43.47787" lon="6.79407">
        <ele>175.003033</ele>
        <time>2021-10-04T16:19:04.559Z</time>
      </trkpt>
      <trkpt lat="43.4773" lon="6.79409">
        <ele>173.3848</ele>
        <time>2021-10-04T16:19:20.173Z</time>
      </trkpt>
      <trkpt lat="43.4768" lon="6.79385">
        <ele>171.780454</ele>
        <time>2021-10-04T16:19:35.170Z</time>
      </trkpt>
      <trkpt lat="43.47664" lon="6.7939">
        <ele>171.266151</ele>
        <time>2021-10-04T16:19:40.037Z</time>
      </trkpt>
      <trkpt lat="43.47544" lon="6.79492">
        <ele>166.187907</ele>
        <time>2021-10-04T16:20:15.837Z</time>
      </trkpt>
      <trkpt lat="43.47511" lon="6.7952">
        <ele>163.560989</ele>
        <time>2021-10-04T16:20:24.835Z</time>
      </trkpt>
      <trkpt lat="43.47467" lon="6.7961">
        <ele>158.25912</ele>
        <time>2021-10-04T16:20:42.438Z</time>
      </trkpt>
      <trkpt lat="43.4745" lon="6.79624">
        <ele>156.964081</ele>
        <time>2021-10-04T16:20:46.704Z</time>
      </trkpt>
      <trkpt lat="43.47404" lon="6.79637">
        <ele>154.446547</ele>
        <time>2021-10-04T16:20:57.326Z</time>
      </trkpt>
      <trkpt lat="43.47358" lon="6.79624">
        <ele>152.502615</ele>
        <time>2021-10-04T16:21:08.151Z</time>
      </trkpt>
      <trkpt lat="43.47336" lon="6.79603">
        <ele>151.407671</ele>
        <time>2021-10-04T16:21:14.587Z</time>
      </trkpt>
      <trkpt lat="43.4733" lon="6.79587">
        <ele>150.847327</ele>
        <time>2021-10-04T16:21:17.984Z</time>
      </trkpt>
      <trkpt lat="43.47326" lon="6.79549">
        <ele>149.71244</ele>
        <time>2021-10-04T16:21:25.189Z</time>
      </trkpt>
      <trkpt lat="43.47302" lon="6.79449">
        <ele>148.750587</ele>
        <time>2021-10-04T16:21:48.945Z</time>
      </trkpt>
      <trkpt lat="43.47311" lon="6.79346">
        <ele>150.094686</ele>
        <time>2021-10-04T16:22:25.527Z</time>
      </trkpt>
      <trkpt lat="43.47297" lon="6.79312">
        <ele>150.594979</ele>
        <time>2021-10-04T16:22:38.721Z</time>
      </trkpt>
      <trkpt lat="43.47271" lon="6.79294">
        <ele>151.125021</ele>
        <time>2021-10-04T16:22:51.751Z</time>
      </trkpt>
      <trkpt lat="43.4725" lon="6.79289">
        <ele>150.885585</ele>
        <time>2021-10-04T16:23:00.391Z</time>
      </trkpt>
      <trkpt lat="43.47234" lon="6.79291">
        <ele>150.339283</ele>
        <time>2021-10-04T16:23:05.849Z</time>
      </trkpt>
      <trkpt lat="43.47214" lon="6.79291">
        <ele>149.636221</ele>
        <time>2021-10-04T16:23:12.671Z</time>
      </trkpt>
      <trkpt lat="43.47173" lon="6.79258">
        <ele>147.962067</ele>
        <time>2021-10-04T16:23:25.798Z</time>
      </trkpt>
      <trkpt lat="43.47124" lon="6.79254">
        <ele>146.242481</ele>
        <time>2021-10-04T16:23:37.716Z</time>
      </trkpt>
      <trkpt lat="43.47089" lon="6.79214">
        <ele>143.819411</ele>
        <time>2021-10-04T16:23:47.714Z</time>
      </trkpt>
      <trkpt lat="43.4706" lon="6.79162">
        <ele>138.171323</ele>
        <time>2021-10-04T16:23:57.710Z</time>
      </trkpt>
      <trkpt lat="43.47045" lon="6.79145">
        <ele>135.837998</ele>
        <time>2021-10-04T16:24:01.784Z</time>
      </trkpt>
      <trkpt lat="43.47025" lon="6.79135">
        <ele>133.35991</ele>
        <time>2021-10-04T16:24:06.086Z</time>
      </trkpt>
      <trkpt lat="43.4697" lon="6.79142">
        <ele>126.696689</ele>
        <time>2021-10-04T16:24:17.599Z</time>
      </trkpt>
      <trkpt lat="43.46897" lon="6.79228">
        <ele>117.06023</ele>
        <time>2021-10-04T16:24:37.361Z</time>
      </trkpt>
      <trkpt lat="43.46851" lon="6.79249">
        <ele>112.503211</ele>
        <time>2021-10-04T16:24:47.987Z</time>
      </trkpt>
      <trkpt lat="43.46843" lon="6.79253">
        <ele>111.733527</ele>
        <time>2021-10-04T16:24:49.699Z</time>
      </trkpt>
      <trkpt lat="43.46839" lon="6.79264">
        <ele>110.871868</ele>
        <time>2021-10-04T16:24:56.103Z</time>
      </trkpt>
      <trkpt lat="43.46817" lon="6.79248">
        <ele>108.50439</ele>
        <time>2021-10-04T16:25:01.969Z</time>
      </trkpt>
      <trkpt lat="43.46789" lon="6.79197">
        <ele>106.707068</ele>
        <time>2021-10-04T16:25:13.618Z</time>
      </trkpt>
      <trkpt lat="43.46759" lon="6.79142">
        <ele>106.584772</ele>
        <time>2021-10-04T16:25:28.091Z</time>
      </trkpt>
      <trkpt lat="43.46749" lon="6.7909">
        <ele>106.489195</ele>
        <time>2021-10-04T16:25:43.123Z</time>
      </trkpt>
      <trkpt lat="43.46736" lon="6.79057">
        <ele>106.421477</ele>
        <time>2021-10-04T16:25:55.530Z</time>
      </trkpt>
      <trkpt lat="43.46726" lon="6.79039">
        <ele>106.381338</ele>
        <time>2021-10-04T16:26:01.404Z</time>
      </trkpt>
      <trkpt lat="43.46678" lon="6.78955">
        <ele>106.618421</ele>
        <time>2021-10-04T16:26:22.336Z</time>
      </trkpt>
      <trkpt lat="43.46674" lon="6.78951">
        <ele>106.642283</ele>
        <time>2021-10-04T16:26:24.384Z</time>
      </trkpt>
      <trkpt lat="43.46655" lon="6.78935">
        <ele>106.755582</ele>
        <time>2021-10-04T16:26:30.581Z</time>
      </trkpt>
      <trkpt lat="43.4664" lon="6.78936">
        <ele>106.829028</ele>
        <time>2021-10-04T16:26:33.067Z</time>
      </trkpt>
      <trkpt lat="43.46578" lon="6.78931">
        <ele>107.129964</ele>
        <time>2021-10-04T16:26:44.086Z</time>
      </trkpt>
      <trkpt lat="43.46566" lon="6.78953">
        <ele>107.209594</ele>
        <time>2021-10-04T16:26:48.087Z</time>
      </trkpt>
      <trkpt lat="43.46565" lon="6.78965">
        <ele>107.177982</ele>
        <time>2021-10-04T16:26:50.121Z</time>
      </trkpt>
      <trkpt lat="43.46561" lon="6.78971">
        <ele>107.157057</ele>
        <time>2021-10-04T16:26:50.878Z</time>
      </trkpt>
      <trkpt lat="43.46556" lon="6.78974">
        <ele>107.136325</ele>
        <time>2021-10-04T16:26:51.662Z</time>
      </trkpt>
      <trkpt lat="43.46493" lon="6.78935">
        <ele>106.891266</ele>
        <time>2021-10-04T16:27:03.014Z</time>
      </trkpt>
      <trkpt lat="43.46452" lon="6.78811">
        <ele>106.681456</ele>
        <time>2021-10-04T16:27:21.942Z</time>
      </trkpt>
      <trkpt lat="43.46435" lon="6.78774">
        <ele>107.008429</ele>
        <time>2021-10-04T16:27:32.337Z</time>
      </trkpt>
      <trkpt lat="43.46393" lon="6.78714">
        <ele>107.636899</ele>
        <time>2021-10-04T16:27:51.394Z</time>
      </trkpt>
      <trkpt lat="43.46344" lon="6.78664">
        <ele>108.258872</ele>
        <time>2021-10-04T16:28:05.464Z</time>
      </trkpt>
      <trkpt lat="43.46339" lon="6.78659">
        <ele>108.326677</ele>
        <time>2021-10-04T16:28:08.311Z</time>
      </trkpt>
      <trkpt lat="43.46337" lon="6.78661">
        <ele>108.347291</ele>
        <time>2021-10-04T16:28:08.770Z</time>
      </trkpt>
      <trkpt lat="43.46329" lon="6.78677">
        <ele>108.239221</ele>
        <time>2021-10-04T16:28:12.672Z</time>
      </trkpt>
      <trkpt lat="43.46314" lon="6.78673">
        <ele>107.770163</ele>
        <time>2021-10-04T16:28:17.292Z</time>
      </trkpt>
      <trkpt lat="43.46261" lon="6.78623">
        <ele>105.852142</ele>
        <time>2021-10-04T16:28:34.420Z</time>
      </trkpt>
      <trkpt lat="43.46246" lon="6.78597">
        <ele>105.139268</ele>
        <time>2021-10-04T16:28:40.715Z</time>
      </trkpt>
      <trkpt lat="43.46225" lon="6.78557">
        <ele>104.080305</ele>
        <time>2021-10-04T16:28:49.611Z</time>
      </trkpt>
      <trkpt lat="43.46222" lon="6.78557">
        <ele>103.985123</ele>
        <time>2021-10-04T16:28:50.329Z</time>
      </trkpt>
      <trkpt lat="43.46216" lon="6.78555">
        <ele>103.803023</ele>
        <time>2021-10-04T16:28:51.832Z</time>
      </trkpt>
      <trkpt lat="43.46214" lon="6.78553">
        <ele>103.720951</ele>
        <time>2021-10-04T16:28:52.472Z</time>
      </trkpt>
      <trkpt lat="43.46183" lon="6.78506">
        <ele>102.042631</ele>
        <time>2021-10-04T16:29:03.316Z</time>
      </trkpt>
      <trkpt lat="43.46166" lon="6.78476">
        <ele>100.824845</ele>
        <time>2021-10-04T16:29:10.019Z</time>
      </trkpt>
      <trkpt lat="43.46134" lon="6.78463">
        <ele>99.378407</ele>
        <time>2021-10-04T16:29:18.003Z</time>
      </trkpt>
      <trkpt lat="43.46092" lon="6.78431">
        <ele>97.301136</ele>
        <time>2021-10-04T16:29:29.723Z</time>
      </trkpt>
      <trkpt lat="43.46068" lon="6.78426">
        <ele>96.22813</ele>
        <time>2021-10-04T16:29:36.112Z</time>
      </trkpt>
      <trkpt lat="43.46048" lon="6.78429">
        <ele>95.342947</ele>
        <time>2021-10-04T16:29:41.295Z</time>
      </trkpt>
      <trkpt lat="43.46018" lon="6.78412">
        <ele>94.316244</ele>
        <time>2021-10-04T16:29:49.711Z</time>
      </trkpt>
      <trkpt lat="43.45992" lon="6.78407">
        <ele>93.521708</ele>
        <time>2021-10-04T16:29:56.417Z</time>
      </trkpt>
      <trkpt lat="43.45981" lon="6.78399">
        <ele>93.131</ele>
        <time>2021-10-04T16:29:59.721Z</time>
      </trkpt>
      <trkpt lat="43.45954" lon="6.78398">
        <ele>92.305946</ele>
        <time>2021-10-04T16:30:06.759Z</time>
      </trkpt>
      <trkpt lat="43.45935" lon="6.78387">
        <ele>91.686074</ele>
        <time>2021-10-04T16:30:12.047Z</time>
      </trkpt>
      <trkpt lat="43.45917" lon="6.78371">
        <ele>91.019527</ele>
        <time>2021-10-04T16:30:17.753Z</time>
      </trkpt>
      <trkpt lat="43.45907" lon="6.78369">
        <ele>90.717207</ele>
        <time>2021-10-04T16:30:20.247Z</time>
      </trkpt>
      <trkpt lat="43.4589" lon="6.78369">
        <ele>90.191331</ele>
        <time>2021-10-04T16:30:24.765Z</time>
      </trkpt>
      <trkpt lat="43.45799" lon="6.78324">
        <ele>87.147772</ele>
        <time>2021-10-04T16:30:49.515Z</time>
      </trkpt>
      <trkpt lat="43.45751" lon="6.78313">
        <ele>85.592607</ele>
        <time>2021-10-04T16:31:02.099Z</time>
      </trkpt>
      <trkpt lat="43.45732" lon="6.78288">
        <ele>84.752574</ele>
        <time>2021-10-04T16:31:09.069Z</time>
      </trkpt>
      <trkpt lat="43.45693" lon="6.78289">
        <ele>83.575303</ele>
        <time>2021-10-04T16:31:14.689Z</time>
      </trkpt>
      <trkpt lat="43.45664" lon="6.78298">
        <ele>82.719408</ele>
        <time>2021-10-04T16:31:18.976Z</time>
      </trkpt>
      <trkpt lat="43.45639" lon="6.78309">
        <ele>81.957507</ele>
        <time>2021-10-04T16:31:22.779Z</time>
      </trkpt>
      <trkpt lat="43.456" lon="6.78311">
        <ele>80.819843</ele>
        <time>2021-10-04T16:31:28.473Z</time>
      </trkpt>
      <trkpt lat="43.45371" lon="6.78144">
        <ele>73.472357</ele>
        <time>2021-10-04T16:32:06.795Z</time>
      </trkpt>
      <trkpt lat="43.45233" lon="6.78091">
        <ele>68.999943</ele>
        <time>2021-10-04T16:32:27.293Z</time>
      </trkpt>
      <trkpt lat="43.45227" lon="6.78089">
        <ele>68.78712</ele>
        <time>2021-10-04T16:32:28.176Z</time>
      </trkpt>
      <trkpt lat="43.45222" lon="6.78088">
        <ele>68.646028</ele>
        <time>2021-10-04T16:32:28.888Z</time>
      </trkpt>
      <trkpt lat="43.45215" lon="6.78086">
        <ele>68.409591</ele>
        <time>2021-10-04T16:32:30.106Z</time>
      </trkpt>
      <trkpt lat="43.4521" lon="6.78086">
        <ele>68.252825</ele>
        <time>2021-10-04T16:32:30.901Z</time>
      </trkpt>
      <trkpt lat="43.45208" lon="6.78084">
        <ele>68.188934</ele>
        <time>2021-10-04T16:32:31.207Z</time>
      </trkpt>
      <trkpt lat="43.45207" lon="6.78083">
        <ele>68.13207</ele>
        <time>2021-10-04T16:32:31.512Z</time>
      </trkpt>
      <trkpt lat="43.45205" lon="6.78082">
        <ele>68.079733</ele>
        <time>2021-10-04T16:32:31.812Z</time>
      </trkpt>
      <trkpt lat="43.45202" lon="6.78082">
        <ele>68.023904</ele>
        <time>2021-10-04T16:32:32.133Z</time>
      </trkpt>
      <trkpt lat="43.452" lon="6.78083">
        <ele>67.968643</ele>
        <time>2021-10-04T16:32:32.467Z</time>
      </trkpt>
      <trkpt lat="43.45198" lon="6.78085">
        <ele>67.91118</ele>
        <time>2021-10-04T16:32:32.781Z</time>
      </trkpt>
      <trkpt lat="43.45192" lon="6.78084">
        <ele>67.761132</ele>
        <time>2021-10-04T16:32:33.567Z</time>
      </trkpt>
      <trkpt lat="43.45174" lon="6.78079">
        <ele>67.279395</ele>
        <time>2021-10-04T16:32:36.435Z</time>
      </trkpt>
      <trkpt lat="43.45156" lon="6.78073">
        <ele>66.814616</ele>
        <time>2021-10-04T16:32:39.042Z</time>
      </trkpt>
      <trkpt lat="43.45117" lon="6.78047">
        <ele>65.721078</ele>
        <time>2021-10-04T16:32:45.444Z</time>
      </trkpt>
      <trkpt lat="43.44969" lon="6.77942">
        <ele>62.141303</ele>
        <time>2021-10-04T16:33:11.151Z</time>
      </trkpt>
      <trkpt lat="43.44949" lon="6.77929">
        <ele>61.761393</ele>
        <time>2021-10-04T16:33:14.541Z</time>
      </trkpt>
      <trkpt lat="43.44946" lon="6.77928">
        <ele>61.69869</ele>
        <time>2021-10-04T16:33:15.140Z</time>
      </trkpt>
      <trkpt lat="43.44939" lon="6.77926">
        <ele>61.588867</ele>
        <time>2021-10-04T16:33:16.206Z</time>
      </trkpt>
      <trkpt lat="43.44919" lon="6.77925">
        <ele>61.239087</ele>
        <time>2021-10-04T16:33:19.376Z</time>
      </trkpt>
      <trkpt lat="43.44899" lon="6.77926">
        <ele>60.88239</ele>
        <time>2021-10-04T16:33:22.765Z</time>
      </trkpt>
      <trkpt lat="43.44886" lon="6.77927">
        <ele>60.660127</ele>
        <time>2021-10-04T16:33:24.775Z</time>
      </trkpt>
      <trkpt lat="43.44836" lon="6.77932">
        <ele>59.704101</ele>
        <time>2021-10-04T16:33:33.206Z</time>
      </trkpt>
      <trkpt lat="43.4478" lon="6.77938">
        <ele>58.644539</ele>
        <time>2021-10-04T16:33:42.239Z</time>
      </trkpt>
      <trkpt lat="43.44722" lon="6.77939">
        <ele>57.5287</ele>
        <time>2021-10-04T16:33:51.206Z</time>
      </trkpt>
      <trkpt lat="43.44723" lon="6.77902">
        <ele>57.015</ele>
        <time>2021-10-04T16:33:55.453Z</time>
      </trkpt>
      <trkpt lat="43.44724" lon="6.77865">
        <ele>55.864145</ele>
        <time>2021-10-04T16:33:59.613Z</time>
      </trkpt>
      <trkpt lat="43.44716" lon="6.77845">
        <ele>55.160739</ele>
        <time>2021-10-04T16:34:01.964Z</time>
      </trkpt>
      <trkpt lat="43.447" lon="6.77812">
        <ele>53.906359</ele>
        <time>2021-10-04T16:34:06.279Z</time>
      </trkpt>
      <trkpt lat="43.4467" lon="6.77757">
        <ele>51.726516</ele>
        <time>2021-10-04T16:34:13.576Z</time>
      </trkpt>
      <trkpt lat="43.44632" lon="6.77689">
        <ele>49.194552</ele>
        <time>2021-10-04T16:34:22.144Z</time>
      </trkpt>
      <trkpt lat="43.44596" lon="6.77621">
        <ele>49.194552</ele>
        <time>2021-10-04T16:34:30.746Z</time>
      </trkpt>
      <trkpt lat="43.44576" lon="6.77593">
        <ele>49.194552</ele>
        <time>2021-10-04T16:34:34.905Z</time>
      </trkpt>
      <trkpt lat="43.44545" lon="6.77571">
        <ele>49.194552</ele>
        <time>2021-10-04T16:34:39.954Z</time>
      </trkpt>
      <trkpt lat="43.44526" lon="6.77605">
        <ele>49.194552</ele>
        <time>2021-10-04T16:34:44.679Z</time>
      </trkpt>
    </trkseg>
  </trk>
</gpx>